Terminal Aerodrome Forecast
Issued by NWS Cleveland, OH

Home | Current Version | Previous Version | Graphics & Text | Print | Product List | Glossary Off
Versions: 1 2 3 4 5 6 7 8 9 10 11 12 13 14 15 16 17 18 19 20 21 22 23 24 25

442
FTUS41 KCLE 241734
TAFCLE
TAF
KCLE 241734Z 2418/2524 22008KT P6SM VCSH BKN035 OVC060
     FM242000 24008KT 5SM -SHRA VCTS BKN040CB OVC080
     FM250000 23005KT P6SM BKN040 OVC100
     FM251200 21006KT P6SM VCTS BKN035CB OVC120=

USA.gov is the U.S. government's official web portal to all federal, state and local government web resources and services.